createdAt,value
2022-10-11T00:01:20.623Z,9.64
2022-10-11T00:03:54.685Z,9.66
2022-10-11T00:06:26.364Z,9.66
2022-10-11T00:08:58.008Z,9.67
2022-10-11T00:11:29.864Z,9.68
2022-10-11T00:14:03.041Z,9.68
2022-10-11T00:16:34.930Z,9.68
2022-10-11T00:19:09.761Z,9.70
2022-10-11T00:21:41.565Z,9.71
2022-10-11T00:24:16.994Z,9.72
2022-10-11T00:26:54.900Z,9.74
2022-10-11T00:29:27.490Z,9.76
2022-10-11T00:31:59.038Z,9.79
2022-10-11T00:34:32.272Z,9.82
2022-10-11T00:37:04.037Z,9.85
2022-10-11T00:39:35.678Z,9.89
2022-10-11T00:42:12.340Z,9.93
2022-10-11T00:44:49.314Z,9.98
2022-10-11T00:47:23.248Z,10.02
2022-10-11T00:49:58.398Z,10.05
2022-10-11T00:52:34.018Z,10.08
2022-10-11T00:55:14.556Z,10.12
2022-10-11T00:57:50.380Z,10.18
2022-10-11T01:00:25.859Z,10.22
2022-10-11T01:02:57.738Z,10.25
2022-10-11T01:05:30.427Z,10.28
2022-10-11T01:08:03.589Z,10.33
2022-10-11T01:10:38.637Z,10.37
2022-10-11T01:13:22.247Z,10.41
2022-10-11T01:16:02.005Z,10.46
2022-10-11T01:18:43.240Z,10.50
2022-10-11T01:21:26.918Z,10.56
2022-10-11T01:24:41.030Z,10.63
2022-10-11T01:27:30.657Z,10.69
2022-10-11T01:30:20.791Z,10.74
2022-10-11T01:33:03.462Z,10.78
2022-10-11T01:35:42.005Z,10.80
2022-10-11T01:38:18.632Z,10.81
2022-10-11T01:40:53.959Z,10.81
2022-10-11T01:43:28.199Z,10.78
2022-10-11T01:46:01.812Z,10.77
2022-10-11T01:48:33.624Z,10.75
2022-10-11T01:51:06.053Z,10.74
2022-10-11T01:54:07.597Z,10.72
2022-10-11T01:56:53.988Z,10.70
2022-10-11T01:59:43.927Z,10.70
2022-10-11T02:02:33.629Z,10.73
2022-10-11T02:05:14.446Z,10.74
2022-10-11T02:07:50.560Z,10.71
2022-10-11T02:10:34.921Z,10.69
2022-10-11T02:13:10.680Z,10.66
2022-10-11T02:15:46.305Z,10.62
2022-10-11T02:18:20.698Z,10.58
2022-10-11T02:20:55.645Z,10.54
2022-10-11T02:23:33.786Z,10.51
2022-10-11T02:26:08.290Z,10.48
2022-10-11T02:28:44.374Z,10.44
2022-10-11T02:31:21.299Z,10.39
2022-10-11T02:34:00.094Z,10.34
2022-10-11T02:36:36.420Z,10.31
2022-10-11T02:39:13.522Z,10.28
2022-10-11T02:41:49.185Z,10.24
2022-10-11T02:44:27.974Z,10.19
2022-10-11T02:47:01.331Z,10.15
2022-10-11T02:49:34.375Z,10.10
2022-10-11T02:52:08.911Z,10.06
2022-10-11T02:54:40.439Z,10.02
2022-10-11T02:57:12.034Z,9.98
2022-10-11T02:59:43.586Z,9.93
2022-10-11T03:02:17.803Z,9.89
2022-10-11T03:04:49.434Z,9.84
2022-10-11T03:07:21.895Z,9.79
2022-10-11T03:09:53.506Z,9.73
2022-10-11T03:12:26.725Z,9.69
2022-10-11T03:14:58.410Z,9.65
2022-10-11T03:17:37.701Z,9.60
2022-10-11T03:20:12.340Z,9.57
2022-10-11T03:22:44.766Z,9.53
2022-10-11T03:25:16.464Z,9.50
2022-10-11T03:27:48.122Z,9.47
2022-10-11T03:30:20.241Z,9.44
2022-10-11T03:32:54.195Z,9.40
2022-10-11T03:35:25.975Z,9.37
2022-10-11T03:37:58.382Z,9.35
2022-10-11T03:40:30.155Z,9.32
2022-10-11T03:43:03.508Z,9.29
2022-10-11T03:45:35.095Z,9.26
2022-10-11T03:48:08.323Z,9.22
2022-10-11T03:50:40.282Z,9.18
2022-10-11T03:53:13.733Z,9.13
2022-10-11T03:55:45.556Z,9.10
2022-10-11T03:58:17.974Z,9.08
2022-10-11T04:00:49.945Z,9.06
2022-10-11T04:03:22.662Z,9.03
2022-10-11T04:05:54.277Z,9.02
2022-10-11T04:08:26.922Z,9.00
2022-10-11T04:10:58.484Z,8.99
2022-10-11T04:13:30.258Z,8.96
2022-10-11T04:16:02.043Z,8.94
2022-10-11T04:18:34.062Z,8.92
2022-10-11T04:21:06.034Z,8.90
2022-10-11T04:23:38.368Z,8.89
2022-10-11T04:26:10.311Z,8.88
2022-10-11T04:28:41.969Z,8.87
2022-10-11T04:31:13.541Z,8.84
2022-10-11T04:33:45.891Z,8.82
2022-10-11T04:36:17.431Z,8.79
2022-10-11T04:38:48.990Z,8.75
2022-10-11T04:41:20.505Z,8.74
2022-10-11T04:43:52.234Z,8.71
2022-10-11T04:46:23.817Z,8.68
2022-10-11T04:48:56.249Z,8.65
2022-10-11T04:51:28.876Z,8.64
2022-10-11T04:54:01.659Z,8.60
2022-10-11T04:56:33.375Z,8.55
2022-10-11T04:59:04.951Z,8.50
2022-10-11T05:01:36.650Z,8.46
2022-10-11T05:04:08.497Z,8.45
2022-10-11T05:06:40.101Z,8.44
2022-10-11T05:09:12.165Z,8.41
2022-10-11T05:11:43.773Z,8.40
2022-10-11T05:14:15.352Z,8.40
2022-10-11T05:16:46.975Z,8.40
2022-10-11T05:19:18.557Z,8.37
2022-10-11T05:21:50.130Z,8.38
2022-10-11T05:24:21.993Z,8.39
2022-10-11T05:26:53.563Z,8.40
2022-10-11T05:29:25.157Z,8.41
2022-10-11T05:31:56.742Z,8.42
2022-10-11T05:34:28.462Z,8.43
2022-10-11T05:37:00.111Z,8.46
2022-10-11T05:39:32.442Z,8.46
2022-10-11T05:42:08.920Z,8.47
2022-10-11T05:44:41.810Z,8.50
2022-10-11T05:47:14.389Z,8.53
2022-10-11T05:49:46.094Z,8.54
2022-10-11T05:52:21.602Z,8.56
2022-10-11T05:54:54.081Z,8.58
2022-10-11T05:57:25.685Z,8.59
2022-10-11T05:59:57.721Z,8.61
2022-10-11T06:02:29.434Z,8.62
2022-10-11T06:05:01.391Z,8.64
2022-10-11T06:08:02.471Z,8.69
2022-10-11T06:10:35.322Z,8.74
2022-10-11T06:13:07.917Z,8.79
2022-10-11T06:15:41.295Z,8.83
2022-10-11T06:18:12.803Z,8.83
2022-10-11T06:20:45.162Z,8.85
2022-10-11T06:23:16.839Z,8.89
2022-10-11T06:25:58.714Z,8.95
2022-10-11T06:28:30.945Z,9.00
2022-10-11T06:31:05.198Z,9.04
2022-10-11T06:33:39.661Z,9.08
2022-10-11T06:36:15.223Z,9.14
2022-10-11T06:38:46.868Z,9.19
2022-10-11T06:41:22.157Z,9.25
2022-10-11T06:43:54.303Z,9.32
2022-10-11T06:46:28.027Z,9.40
2022-10-11T06:48:59.898Z,9.50
2022-10-11T06:51:33.464Z,9.58
2022-10-11T06:54:05.482Z,9.67
2022-10-11T06:56:37.214Z,9.74
2022-10-11T06:59:09.743Z,9.82
2022-10-11T07:01:44.863Z,9.91
2022-10-11T07:04:23.452Z,10.02
2022-10-11T07:06:55.145Z,10.11
2022-10-11T07:09:26.933Z,10.20
2022-10-11T07:12:05.211Z,10.28
2022-10-11T07:14:36.899Z,10.35
2022-10-11T07:17:14.040Z,10.44
2022-10-11T07:19:45.677Z,10.54
2022-10-11T07:22:18.222Z,10.64
2022-10-11T07:24:49.828Z,10.74
2022-10-11T07:27:22.529Z,10.84
2022-10-11T07:29:54.061Z,10.94
2022-10-11T07:32:25.703Z,11.05
2022-10-11T07:34:57.626Z,11.16
2022-10-11T07:37:29.725Z,11.24
2022-10-11T07:40:01.404Z,11.33
2022-10-11T07:42:34.282Z,11.41
2022-10-11T07:45:06.882Z,11.49
2022-10-11T07:47:38.474Z,11.60
2022-10-11T07:50:11.705Z,11.70
2022-10-11T07:52:44.358Z,11.81
2022-10-11T07:55:16.055Z,11.91
2022-10-11T07:57:47.674Z,12.00
2022-10-11T08:00:20.024Z,12.03
2022-10-11T08:02:53.358Z,12.07
2022-10-11T08:05:24.920Z,12.11
2022-10-11T08:07:56.924Z,12.15
2022-10-11T08:10:29.073Z,12.17
2022-10-11T08:13:04.394Z,12.24
2022-10-11T08:18:54.539Z,12.45
2022-10-11T08:21:26.902Z,12.55
2022-10-11T08:23:59.492Z,12.67
2022-10-11T08:26:31.240Z,12.75
2022-10-11T08:29:04.085Z,12.84
2022-10-11T08:31:36.969Z,12.96
2022-10-11T08:34:08.682Z,13.09
2022-10-11T08:36:40.540Z,13.21
2022-10-11T08:39:13.191Z,13.30
2022-10-11T08:41:49.554Z,13.34
2022-10-11T08:45:05.388Z,13.39
2022-10-11T08:47:37.740Z,13.40
2022-10-11T08:50:24.345Z,13.46
2022-10-11T08:53:00.871Z,13.54
2022-10-11T08:55:40.663Z,13.62
2022-10-11T08:58:16.636Z,13.74
2022-10-11T09:00:54.411Z,13.89
2022-10-11T09:03:36.270Z,14.01
2022-10-11T09:06:19.827Z,14.10
2022-10-11T09:09:04.250Z,14.21
2022-10-11T09:11:49.805Z,14.29
2022-10-11T09:14:46.363Z,14.43
2022-10-11T09:17:30.298Z,14.52
2022-10-11T09:20:23.790Z,14.56
2022-10-11T09:23:01.620Z,14.52
2022-10-11T09:25:38.233Z,14.49
2022-10-11T09:28:18.762Z,14.54
2022-10-11T09:31:00.760Z,14.59
2022-10-11T09:33:36.593Z,14.70
2022-10-11T09:36:20.197Z,14.78
2022-10-11T09:39:06.354Z,14.88
2022-10-11T09:41:44.372Z,15.03
2022-10-11T09:44:23.098Z,15.08
2022-10-11T09:46:56.954Z,15.08
2022-10-11T09:49:34.483Z,15.13
2022-10-11T09:52:08.877Z,15.17
2022-10-11T09:54:47.732Z,15.16
2022-10-11T09:57:38.998Z,15.23
2022-10-11T10:00:31.164Z,15.33
2022-10-11T10:03:05.410Z,15.39
2022-10-11T10:05:38.749Z,15.43
2022-10-11T10:08:25.358Z,15.49
2022-10-11T10:11:05.661Z,15.36
2022-10-11T10:13:45.130Z,15.24
2022-10-11T10:16:27.001Z,15.33
2022-10-11T10:19:01.432Z,15.35
2022-10-11T10:21:36.468Z,15.39
2022-10-11T10:24:23.320Z,15.30
2022-10-11T10:27:18.289Z,15.22
2022-10-11T10:30:13.334Z,15.27
2022-10-11T10:32:54.279Z,15.23
2022-10-11T10:35:36.255Z,15.23
2022-10-11T10:38:26.231Z,15.35
2022-10-11T10:41:02.626Z,15.58
2022-10-11T10:43:37.698Z,15.75
2022-10-11T10:46:30.991Z,15.73
2022-10-11T10:52:19.813Z,15.77
2022-10-11T10:54:57.787Z,15.95
2022-10-11T10:57:38.148Z,16.18
2022-10-11T11:00:22.870Z,16.32
2022-10-11T11:03:01.387Z,16.55
2022-10-11T11:05:46.757Z,16.66
2022-10-11T11:08:40.531Z,16.77
2022-10-11T11:11:33.756Z,16.85
2022-10-11T11:14:13.045Z,16.78
2022-10-11T11:16:51.350Z,16.70
2022-10-11T11:19:37.258Z,16.73
2022-10-11T11:22:17.334Z,16.78
2022-10-11T11:24:58.562Z,16.84
2022-10-11T11:27:48.498Z,16.93
2022-10-11T11:30:31.239Z,17.15
2022-10-11T11:33:12.111Z,17.33
2022-10-11T11:35:46.951Z,17.47
2022-10-11T11:38:28.646Z,17.34
2022-10-11T11:45:24.289Z,16.89
2022-10-11T11:48:02.525Z,16.67
2022-10-11T11:50:41.859Z,16.42
2022-10-11T11:53:19.353Z,16.15
2022-10-11T11:55:57.119Z,15.93
2022-10-11T11:58:37.067Z,15.73
2022-10-11T12:01:19.586Z,15.60
2022-10-11T12:04:08.677Z,15.49
2022-10-11T12:06:58.152Z,15.38
2022-10-11T12:09:36.860Z,15.31
2022-10-11T12:12:39.438Z,15.23
2022-10-11T12:15:25.031Z,15.19
2022-10-11T12:18:15.432Z,15.14
2022-10-11T12:21:02.108Z,15.09
2022-10-11T12:23:44.055Z,15.01
2022-10-11T12:26:45.152Z,14.95
2022-10-11T12:29:34.893Z,15.09
2022-10-11T12:32:53.293Z,15.08
2022-10-11T12:35:58.056Z,15.27
2022-10-11T12:38:31.846Z,15.45
2022-10-11T12:41:40.032Z,15.57
2022-10-11T12:44:23.253Z,15.80
2022-10-11T12:47:19.283Z,16.08
2022-10-11T12:50:03.836Z,16.33
2022-10-11T12:52:51.160Z,16.58
2022-10-11T12:55:39.299Z,16.77
2022-10-11T12:58:26.840Z,16.91
2022-10-11T13:01:23.587Z,16.91
2022-10-11T13:04:01.772Z,16.88
2022-10-11T13:06:35.636Z,16.78
2022-10-11T13:09:18.202Z,16.79
2022-10-11T13:11:53.521Z,16.73
2022-10-11T13:14:28.206Z,16.70
2022-10-11T13:17:16.391Z,16.67
2022-10-11T13:19:52.198Z,16.66
2022-10-11T13:22:25.805Z,16.64
2022-10-11T13:25:00.212Z,16.69
2022-10-11T13:27:31.995Z,16.81
2022-10-11T13:30:15.497Z,16.87
2022-10-11T13:32:54.808Z,16.81
2022-10-11T13:35:32.627Z,16.78
2022-10-11T13:38:08.658Z,16.84
2022-10-11T13:40:45.349Z,16.85
2022-10-11T13:43:25.971Z,16.87
2022-10-11T13:46:00.549Z,16.88
2022-10-11T13:48:39.811Z,16.84
2022-10-11T13:51:18.049Z,16.68
2022-10-11T13:54:02.848Z,16.63
2022-10-11T13:56:37.654Z,16.59
2022-10-11T13:59:17.079Z,16.49
2022-10-11T14:01:49.690Z,16.42
2022-10-11T14:04:23.278Z,16.34
2022-10-11T14:07:02.545Z,16.23
2022-10-11T14:09:38.025Z,16.25
2022-10-11T14:12:30.220Z,16.19
2022-10-11T14:15:03.251Z,16.10
2022-10-11T14:17:46.735Z,16.04
2022-10-11T14:20:21.955Z,16.02
2022-10-11T14:22:56.005Z,15.98
2022-10-11T14:25:27.834Z,15.91
2022-10-11T14:27:59.804Z,15.89
2022-10-11T14:30:32.536Z,15.87
2022-10-11T14:33:04.828Z,15.84
2022-10-11T14:35:37.155Z,15.84
2022-10-11T14:38:10.771Z,15.80
2022-10-11T14:40:42.438Z,15.80
2022-10-11T14:43:16.906Z,15.74
2022-10-11T14:45:48.669Z,15.67
2022-10-11T14:48:43.005Z,15.55
2022-10-11T14:51:15.914Z,15.38
2022-10-11T14:53:47.684Z,15.29
2022-10-11T14:56:21.657Z,15.21
2022-10-11T14:58:53.802Z,15.11
2022-10-11T15:01:25.599Z,15.02
2022-10-11T15:03:57.386Z,14.98
2022-10-11T15:06:33.172Z,14.92
2022-10-11T15:09:05.195Z,14.85
2022-10-11T15:11:39.359Z,14.78
2022-10-11T15:14:11.161Z,14.71
2022-10-11T15:16:43.112Z,14.63
2022-10-11T15:19:17.882Z,14.55
2022-10-11T15:21:50.305Z,14.47
2022-10-11T15:24:23.146Z,14.38
2022-10-11T15:26:55.116Z,14.29
2022-10-11T15:29:26.937Z,14.22
2022-10-11T15:31:58.649Z,14.13
2022-10-11T15:34:30.420Z,14.05
2022-10-11T15:37:02.145Z,13.97
2022-10-11T15:39:34.013Z,13.89
2022-10-11T15:42:05.718Z,13.78
2022-10-11T15:44:37.543Z,13.68
2022-10-11T15:47:09.787Z,13.58
2022-10-11T15:49:41.569Z,13.48
2022-10-11T15:52:13.360Z,13.38
2022-10-11T15:54:45.089Z,13.28
2022-10-11T15:57:18.372Z,13.19
2022-10-11T15:59:50.129Z,13.10
2022-10-11T16:02:21.850Z,13.02
2022-10-11T16:04:55.531Z,12.93
2022-10-11T16:07:27.318Z,12.86
2022-10-11T16:09:59.181Z,12.77
2022-10-11T16:12:31.090Z,12.69
2022-10-11T16:15:02.984Z,12.61
2022-10-11T16:17:34.769Z,12.53
2022-10-11T16:20:13.152Z,12.45
2022-10-11T16:22:44.955Z,12.36
2022-10-11T16:25:17.072Z,12.27
2022-10-11T16:27:49.116Z,12.19
2022-10-11T16:30:24.389Z,12.11
2022-10-11T16:32:56.129Z,12.03
2022-10-11T16:35:32.375Z,11.96
2022-10-11T16:38:04.613Z,11.89
2022-10-11T16:40:38.660Z,11.82
2022-10-11T16:43:11.119Z,11.75
2022-10-11T16:45:42.893Z,11.67
2022-10-11T16:48:14.603Z,11.61
2022-10-11T16:50:48.746Z,11.55
2022-10-11T16:53:21.846Z,11.49
2022-10-11T16:55:54.077Z,11.44
2022-10-11T16:58:25.886Z,11.37
2022-10-11T17:00:57.658Z,11.31
2022-10-11T17:03:29.790Z,11.25
2022-10-11T17:06:01.573Z,11.19
2022-10-11T17:08:33.721Z,11.14
2022-10-11T17:11:06.322Z,11.08
2022-10-11T17:13:38.090Z,11.03
2022-10-11T17:16:11.946Z,10.98
2022-10-11T17:18:44.005Z,10.94
2022-10-11T17:21:19.695Z,10.90
2022-10-11T17:23:51.515Z,10.85
2022-10-11T17:26:26.413Z,10.80
2022-10-11T17:29:00.423Z,10.77
2022-10-11T17:31:32.885Z,10.71
2022-10-11T17:34:04.588Z,10.67
2022-10-11T17:36:36.530Z,10.63
2022-10-11T17:39:11.166Z,10.58
2022-10-11T17:41:44.372Z,10.53
2022-10-11T17:44:18.558Z,10.50
2022-10-11T17:46:51.066Z,10.44
2022-10-11T17:49:22.823Z,10.38
2022-10-11T17:51:55.222Z,10.33
2022-10-11T17:54:27.121Z,10.28
2022-10-11T17:56:59.016Z,10.24
2022-10-11T17:59:32.343Z,10.19
2022-10-11T18:02:04.025Z,10.15
2022-10-11T18:04:35.643Z,10.12
2022-10-11T18:07:07.280Z,10.07
2022-10-11T18:09:38.838Z,10.03
2022-10-11T18:12:11.378Z,9.97
2022-10-11T18:14:43.044Z,9.93
2022-10-11T18:17:14.655Z,9.87
2022-10-11T18:19:46.447Z,9.81
2022-10-11T18:22:18.054Z,9.75
2022-10-11T18:24:50.708Z,9.72
2022-10-11T18:27:22.349Z,9.69
2022-10-11T18:29:53.952Z,9.65
2022-10-11T18:32:27.170Z,9.62
2022-10-11T18:34:59.878Z,9.59
2022-10-11T18:37:31.740Z,9.55
2022-10-11T18:40:03.829Z,9.49
2022-10-11T18:42:35.419Z,9.41
2022-10-11T18:45:10.387Z,9.32
2022-10-11T18:47:42.004Z,9.26
2022-10-11T18:50:13.744Z,9.17
2022-10-11T18:52:48.589Z,9.11
2022-10-11T18:55:20.734Z,9.06
2022-10-11T18:57:52.288Z,8.99
2022-10-11T19:00:40.147Z,8.97
2022-10-11T19:03:13.016Z,8.95
2022-10-11T19:05:45.154Z,8.91
2022-10-11T19:08:17.017Z,8.86
2022-10-11T19:10:49.640Z,8.80
2022-10-11T19:13:21.518Z,8.79
2022-10-11T19:15:53.284Z,8.80
2022-10-11T19:18:25.762Z,8.82
2022-10-11T19:21:04.294Z,8.82
2022-10-11T19:23:39.489Z,8.80
2022-10-11T19:26:16.170Z,8.77
2022-10-11T19:28:49.078Z,8.76
2022-10-11T19:31:20.836Z,8.72
2022-10-11T19:33:53.726Z,8.70
2022-10-11T19:36:25.983Z,8.67
2022-10-11T19:38:58.061Z,8.64
2022-10-11T19:41:29.794Z,8.63
2022-10-11T19:44:01.978Z,8.60
2022-10-11T19:49:26.194Z,8.53
2022-10-11T19:51:58.579Z,8.49
2022-10-11T19:54:30.476Z,8.45
2022-10-11T19:57:02.006Z,8.41
2022-10-11T19:59:33.632Z,8.36
2022-10-11T20:02:05.256Z,8.30
2022-10-11T20:04:52.070Z,8.25
2022-10-11T20:07:25.461Z,8.24
2022-10-11T20:09:57.040Z,8.22
2022-10-11T20:12:29.494Z,8.19
2022-10-11T20:15:01.284Z,8.18
2022-10-11T20:17:46.766Z,8.16
2022-10-11T20:20:23.662Z,8.13
2022-10-11T20:22:55.619Z,8.12
2022-10-11T20:25:27.416Z,8.10
2022-10-11T20:27:58.921Z,8.07
2022-10-11T20:30:32.259Z,8.04
2022-10-11T20:33:03.846Z,8.01
2022-10-11T20:35:35.509Z,8.00
2022-10-11T20:38:07.081Z,7.96
2022-10-11T20:40:43.922Z,7.93
2022-10-11T20:43:15.698Z,7.89
2022-10-11T20:45:47.845Z,7.85
2022-10-11T20:48:19.466Z,7.84
2022-10-11T20:50:52.666Z,7.82
2022-10-11T20:53:24.495Z,7.80
2022-10-11T20:55:56.360Z,7.78
2022-10-11T20:58:27.913Z,7.76
2022-10-11T21:01:01.143Z,7.74
2022-10-11T21:03:32.688Z,7.72
2022-10-11T21:06:05.055Z,7.70
2022-10-11T21:08:37.010Z,7.68
2022-10-11T21:11:10.763Z,7.66
2022-10-11T21:13:43.217Z,7.65
2022-10-11T21:16:17.090Z,7.63
2022-10-11T21:18:53.032Z,7.63
2022-10-11T21:21:26.102Z,7.60
2022-10-11T21:23:58.445Z,7.58
2022-10-11T21:26:30.804Z,7.56
2022-10-11T21:29:04.130Z,7.54
2022-10-11T21:31:37.086Z,7.54
2022-10-11T21:34:08.660Z,7.53
2022-10-11T21:36:40.283Z,7.52
2022-10-11T21:39:11.853Z,7.51
2022-10-11T21:41:47.553Z,7.50
2022-10-11T21:44:19.097Z,7.49
2022-10-11T21:47:07.629Z,7.48
2022-10-11T21:49:44.408Z,7.46
2022-10-11T21:52:18.199Z,7.42
2022-10-11T21:54:49.731Z,7.34
2022-10-11T21:57:21.332Z,7.31
2022-10-11T21:59:52.888Z,7.28
2022-10-11T22:02:25.269Z,7.25
2022-10-11T22:04:56.823Z,7.20
2022-10-11T22:07:28.546Z,7.17
2022-10-11T22:10:00.167Z,7.18
2022-10-11T22:12:33.494Z,7.20
2022-10-11T22:15:05.526Z,7.20
2022-10-11T22:17:37.171Z,7.19
2022-10-11T22:20:14.595Z,7.17
2022-10-11T22:22:50.098Z,7.15
2022-10-11T22:25:21.679Z,7.14
2022-10-11T22:27:53.296Z,7.12
2022-10-11T22:30:24.942Z,7.10
2022-10-11T22:32:58.233Z,7.08
2022-10-11T22:35:32.417Z,7.05
2022-10-11T22:38:08.442Z,7.03
2022-10-11T22:40:43.271Z,7.02
2022-10-11T22:43:15.746Z,7.01
2022-10-11T22:45:48.134Z,6.96
2022-10-11T22:48:19.763Z,6.92
2022-10-11T22:50:51.695Z,6.88
2022-10-11T22:53:26.555Z,6.82
2022-10-11T22:55:58.112Z,6.80
2022-10-11T22:58:29.717Z,6.78
2022-10-11T23:01:09.113Z,6.75
2022-10-11T23:03:42.539Z,6.72
2022-10-11T23:06:14.141Z,6.68
2022-10-11T23:08:46.574Z,6.64
2022-10-11T23:11:18.239Z,6.60
2022-10-11T23:13:51.435Z,6.56
2022-10-11T23:16:23.028Z,6.51
2022-10-11T23:18:56.226Z,6.46
2022-10-11T23:21:27.796Z,6.45
2022-10-11T23:24:00.308Z,6.44
2022-10-11T23:26:32.059Z,6.42
2022-10-11T23:29:04.766Z,6.42
2022-10-11T23:31:36.486Z,6.41
2022-10-11T23:34:10.115Z,6.41
2022-10-11T23:36:41.687Z,6.40
2022-10-11T23:39:16.148Z,6.39
2022-10-11T23:41:47.818Z,6.37
2022-10-11T23:44:20.272Z,6.35
2022-10-11T23:46:52.233Z,6.34
2022-10-11T23:49:27.163Z,6.32
2022-10-11T23:51:59.075Z,6.31
2022-10-11T23:54:31.544Z,6.29
2022-10-11T23:57:03.060Z,6.27
2022-10-11T23:59:34.703Z,6.20
